sensor_id;sensor_type;location;lat;lon;timestamp;P1;durP1;ratioP1;P2;durP2;ratioP2
52266;SDS011;38223;50.940;4.034;2023-04-27T00:01:09;11.00;;;9.20;;
52266;SDS011;38223;50.940;4.034;2023-04-27T00:03:44;9.98;;;8.93;;
52266;SDS011;38223;50.940;4.034;2023-04-27T00:06:18;9.83;;;8.83;;
52266;SDS011;38223;50.940;4.034;2023-04-27T00:08:52;11.12;;;9.90;;
52266;SDS011;38223;50.940;4.034;2023-04-27T00:11:22;11.60;;;9.93;;
52266;SDS011;38223;50.940;4.034;2023-04-27T00:14:00;14.40;;;10.15;;
52266;SDS011;38223;50.940;4.034;2023-04-27T00:16:32;13.05;;;10.68;;
52266;SDS011;38223;50.940;4.034;2023-04-27T00:19:03;11.35;;;10.25;;
52266;SDS011;38223;50.940;4.034;2023-04-27T00:21:38;15.58;;;10.80;;
52266;SDS011;38223;50.940;4.034;2023-04-27T00:24:10;11.18;;;10.00;;
52266;SDS011;38223;50.940;4.034;2023-04-27T00:26:42;13.55;;;9.95;;
52266;SDS011;38223;50.940;4.034;2023-04-27T00:29:10;12.70;;;10.43;;
52266;SDS011;38223;50.940;4.034;2023-04-27T00:31:46;13.65;;;9.98;;
52266;SDS011;38223;50.940;4.034;2023-04-27T00:34:15;11.38;;;10.10;;
52266;SDS011;38223;50.940;4.034;2023-04-27T00:36:48;11.15;;;9.70;;
52266;SDS011;38223;50.940;4.034;2023-04-27T00:39:18;11.03;;;9.90;;
52266;SDS011;38223;50.940;4.034;2023-04-27T00:41:49;10.55;;;9.55;;
52266;SDS011;38223;50.940;4.034;2023-04-27T00:44:24;10.72;;;9.73;;
52266;SDS011;38223;50.940;4.034;2023-04-27T00:47:01;11.85;;;10.28;;
52266;SDS011;38223;50.940;4.034;2023-04-27T00:49:34;10.03;;;9.03;;
52266;SDS011;38223;50.940;4.034;2023-04-27T00:52:07;11.85;;;10.10;;
52266;SDS011;38223;50.940;4.034;2023-04-27T00:54:37;13.35;;;9.65;;
52266;SDS011;38223;50.940;4.034;2023-04-27T00:57:17;10.85;;;9.78;;
52266;SDS011;38223;50.940;4.034;2023-04-27T01:00:05;10.55;;;9.55;;
52266;SDS011;38223;50.940;4.034;2023-04-27T01:02:40;12.10;;;10.08;;
52266;SDS011;38223;50.940;4.034;2023-04-27T01:05:18;11.85;;;10.53;;
52266;SDS011;38223;50.940;4.034;2023-04-27T01:08:04;10.90;;;9.03;;
52266;SDS011;38223;50.940;4.034;2023-04-27T01:10:44;10.25;;;7.97;;
52266;SDS011;38223;50.940;4.034;2023-04-27T01:13:21;11.45;;;8.35;;
52266;SDS011;38223;50.940;4.034;2023-04-27T01:16:12;12.58;;;8.88;;
52266;SDS011;38223;50.940;4.034;2023-04-27T01:18:56;10.15;;;8.48;;
52266;SDS011;38223;50.940;4.034;2023-04-27T01:21:33;11.48;;;8.90;;
52266;SDS011;38223;50.940;4.034;2023-04-27T01:24:12;11.25;;;9.00;;
52266;SDS011;38223;50.940;4.034;2023-04-27T01:26:41;12.75;;;8.90;;
52266;SDS011;38223;50.940;4.034;2023-04-27T01:29:09;10.32;;;8.65;;
52266;SDS011;38223;50.940;4.034;2023-04-27T01:31:41;10.50;;;8.80;;
52266;SDS011;38223;50.940;4.034;2023-04-27T01:34:08;10.63;;;8.70;;
52266;SDS011;38223;50.940;4.034;2023-04-27T01:36:36;10.32;;;9.20;;
52266;SDS011;38223;50.940;4.034;2023-04-27T01:39:04;10.32;;;8.50;;
52266;SDS011;38223;50.940;4.034;2023-04-27T01:41:34;13.60;;;9.10;;
52266;SDS011;38223;50.940;4.034;2023-04-27T01:44:02;9.95;;;8.88;;
52266;SDS011;38223;50.940;4.034;2023-04-27T01:46:40;10.82;;;8.23;;
52266;SDS011;38223;50.940;4.034;2023-04-27T01:49:17;15.93;;;8.70;;
52266;SDS011;38223;50.940;4.034;2023-04-27T01:51:55;11.78;;;8.70;;
52266;SDS011;38223;50.940;4.034;2023-04-27T01:54:29;13.18;;;8.90;;
52266;SDS011;38223;50.940;4.034;2023-04-27T01:57:00;10.38;;;8.25;;
52266;SDS011;38223;50.940;4.034;2023-04-27T01:59:32;11.22;;;8.58;;
52266;SDS011;38223;50.940;4.034;2023-04-27T02:02:07;11.05;;;8.25;;
52266;SDS011;38223;50.940;4.034;2023-04-27T02:04:41;8.95;;;7.95;;
52266;SDS011;38223;50.940;4.034;2023-04-27T02:07:15;9.25;;;8.28;;
52266;SDS011;38223;50.940;4.034;2023-04-27T02:09:45;12.88;;;7.83;;
52266;SDS011;38223;50.940;4.034;2023-04-27T02:12:13;14.05;;;9.23;;
52266;SDS011;38223;50.940;4.034;2023-04-27T02:14:43;11.57;;;8.20;;
52266;SDS011;38223;50.940;4.034;2023-04-27T02:17:13;10.65;;;8.53;;
52266;SDS011;38223;50.940;4.034;2023-04-27T02:19:43;12.75;;;8.23;;
52266;SDS011;38223;50.940;4.034;2023-04-27T02:22:23;13.38;;;8.95;;
52266;SDS011;38223;50.940;4.034;2023-04-27T02:24:58;9.45;;;8.48;;
52266;SDS011;38223;50.940;4.034;2023-04-27T02:27:34;9.55;;;8.60;;
52266;SDS011;38223;50.940;4.034;2023-04-27T02:30:14;11.50;;;8.88;;
52266;SDS011;38223;50.940;4.034;2023-04-27T02:32:53;10.10;;;8.70;;
52266;SDS011;38223;50.940;4.034;2023-04-27T02:35:33;10.32;;;8.33;;
52266;SDS011;38223;50.940;4.034;2023-04-27T02:38:07;9.90;;;8.88;;
52266;SDS011;38223;50.940;4.034;2023-04-27T02:40:45;12.58;;;8.58;;
52266;SDS011;38223;50.940;4.034;2023-04-27T02:43:16;14.53;;;9.65;;
52266;SDS011;38223;50.940;4.034;2023-04-27T02:45:49;12.98;;;9.20;;
52266;SDS011;38223;50.940;4.034;2023-04-27T02:48:18;14.28;;;9.30;;
52266;SDS011;38223;50.940;4.034;2023-04-27T02:50:46;9.60;;;8.70;;
52266;SDS011;38223;50.940;4.034;2023-04-27T02:53:14;12.00;;;8.80;;
52266;SDS011;38223;50.940;4.034;2023-04-27T02:55:51;11.18;;;9.35;;
52266;SDS011;38223;50.940;4.034;2023-04-27T02:58:24;12.50;;;9.75;;
52266;SDS011;38223;50.940;4.034;2023-04-27T03:00:56;11.00;;;9.33;;
52266;SDS011;38223;50.940;4.034;2023-04-27T03:03:27;11.03;;;8.93;;
52266;SDS011;38223;50.940;4.034;2023-04-27T03:05:54;10.65;;;9.38;;
52266;SDS011;38223;50.940;4.034;2023-04-27T03:08:33;12.23;;;9.08;;
52266;SDS011;38223;50.940;4.034;2023-04-27T03:11:15;12.05;;;9.25;;
52266;SDS011;38223;50.940;4.034;2023-04-27T03:13:54;10.08;;;9.08;;
52266;SDS011;38223;50.940;4.034;2023-04-27T03:16:34;9.18;;;8.23;;
52266;SDS011;38223;50.940;4.034;2023-04-27T03:19:18;10.60;;;9.15;;
52266;SDS011;38223;50.940;4.034;2023-04-27T03:21:53;10.93;;;8.90;;
52266;SDS011;38223;50.940;4.034;2023-04-27T03:24:30;10.18;;;9.00;;
52266;SDS011;38223;50.940;4.034;2023-04-27T03:27:03;11.28;;;8.85;;
52266;SDS011;38223;50.940;4.034;2023-04-27T03:29:37;10.72;;;9.38;;
52266;SDS011;38223;50.940;4.034;2023-04-27T03:32:07;11.60;;;9.18;;
52266;SDS011;38223;50.940;4.034;2023-04-27T03:34:59;16.12;;;8.90;;
52266;SDS011;38223;50.940;4.034;2023-04-27T03:37:37;9.50;;;8.55;;
52266;SDS011;38223;50.940;4.034;2023-04-27T03:40:24;12.88;;;9.70;;
52266;SDS011;38223;50.940;4.034;2023-04-27T03:43:05;14.98;;;10.03;;
52266;SDS011;38223;50.940;4.034;2023-04-27T03:45:37;12.65;;;9.53;;
52266;SDS011;38223;50.940;4.034;2023-04-27T03:48:15;9.75;;;8.60;;
52266;SDS011;38223;50.940;4.034;2023-04-27T03:50:53;12.75;;;9.75;;
52266;SDS011;38223;50.940;4.034;2023-04-27T03:53:28;11.15;;;10.05;;
52266;SDS011;38223;50.940;4.034;2023-04-27T03:56:06;11.50;;;9.80;;
52266;SDS011;38223;50.940;4.034;2023-04-27T03:58:51;14.28;;;9.68;;
52266;SDS011;38223;50.940;4.034;2023-04-27T04:01:25;10.90;;;9.53;;
52266;SDS011;38223;50.940;4.034;2023-04-27T04:04:03;11.28;;;9.98;;
52266;SDS011;38223;50.940;4.034;2023-04-27T04:09:48;15.50;;;9.50;;
52266;SDS011;38223;50.940;4.034;2023-04-27T04:12:34;12.50;;;9.73;;
52266;SDS011;38223;50.940;4.034;2023-04-27T04:15:08;12.95;;;10.00;;
52266;SDS011;38223;50.940;4.034;2023-04-27T04:17:42;13.15;;;9.70;;
52266;SDS011;38223;50.940;4.034;2023-04-27T04:20:13;11.57;;;10.32;;
52266;SDS011;38223;50.940;4.034;2023-04-27T04:23:00;14.20;;;10.80;;
52266;SDS011;38223;50.940;4.034;2023-04-27T04:25:36;11.78;;;9.80;;
52266;SDS011;38223;50.940;4.034;2023-04-27T04:28:23;14.28;;;9.90;;
52266;SDS011;38223;50.940;4.034;2023-04-27T04:31:02;11.12;;;9.30;;
52266;SDS011;38223;50.940;4.034;2023-04-27T04:33:32;12.10;;;9.53;;
52266;SDS011;38223;50.940;4.034;2023-04-27T04:36:03;15.88;;;9.50;;
52266;SDS011;38223;50.940;4.034;2023-04-27T04:38:38;11.73;;;10.00;;
52266;SDS011;38223;50.940;4.034;2023-04-27T04:41:13;11.30;;;9.28;;
52266;SDS011;38223;50.940;4.034;2023-04-27T04:43:50;14.60;;;10.20;;
52266;SDS011;38223;50.940;4.034;2023-04-27T04:46:24;14.90;;;9.90;;
52266;SDS011;38223;50.940;4.034;2023-04-27T04:48:53;11.38;;;9.75;;
52266;SDS011;38223;50.940;4.034;2023-04-27T04:51:26;11.73;;;9.53;;
52266;SDS011;38223;50.940;4.034;2023-04-27T04:54:05;12.35;;;9.98;;
52266;SDS011;38223;50.940;4.034;2023-04-27T04:56:41;11.83;;;9.45;;
52266;SDS011;38223;50.940;4.034;2023-04-27T04:59:15;16.15;;;9.38;;
52266;SDS011;38223;50.940;4.034;2023-04-27T05:01:52;11.73;;;8.63;;
52266;SDS011;38223;50.940;4.034;2023-04-27T05:04:20;12.95;;;9.00;;
52266;SDS011;38223;50.940;4.034;2023-04-27T05:06:51;11.45;;;9.35;;
52266;SDS011;38223;50.940;4.034;2023-04-27T05:09:24;11.83;;;9.03;;
52266;SDS011;38223;50.940;4.034;2023-04-27T05:11:59;10.53;;;9.03;;
52266;SDS011;38223;50.940;4.034;2023-04-27T05:14:35;13.68;;;8.90;;
52266;SDS011;38223;50.940;4.034;2023-04-27T05:17:04;10.37;;;8.97;;
52266;SDS011;38223;50.940;4.034;2023-04-27T05:19:43;13.30;;;8.73;;
52266;SDS011;38223;50.940;4.034;2023-04-27T05:22:31;14.38;;;9.23;;
52266;SDS011;38223;50.940;4.034;2023-04-27T05:25:08;11.38;;;9.23;;
52266;SDS011;38223;50.940;4.034;2023-04-27T05:27:37;11.08;;;8.80;;
52266;SDS011;38223;50.940;4.034;2023-04-27T05:30:10;12.65;;;9.48;;
52266;SDS011;38223;50.940;4.034;2023-04-27T05:32:40;16.95;;;9.78;;
52266;SDS011;38223;50.940;4.034;2023-04-27T05:35:12;12.68;;;9.65;;
52266;SDS011;38223;50.940;4.034;2023-04-27T05:37:45;13.88;;;8.83;;
52266;SDS011;38223;50.940;4.034;2023-04-27T05:40:19;10.30;;;8.70;;
52266;SDS011;38223;50.940;4.034;2023-04-27T05:42:55;12.53;;;8.93;;
52266;SDS011;38223;50.940;4.034;2023-04-27T05:45:30;11.78;;;9.63;;
52266;SDS011;38223;50.940;4.034;2023-04-27T05:48:05;15.10;;;9.80;;
52266;SDS011;38223;50.940;4.034;2023-04-27T05:50:36;11.50;;;10.05;;
52266;SDS011;38223;50.940;4.034;2023-04-27T05:53:06;15.70;;;9.95;;
52266;SDS011;38223;50.940;4.034;2023-04-27T05:55:44;18.17;;;9.60;;
52266;SDS011;38223;50.940;4.034;2023-04-27T05:58:14;11.90;;;9.45;;
52266;SDS011;38223;50.940;4.034;2023-04-27T06:00:48;19.40;;;10.05;;
52266;SDS011;38223;50.940;4.034;2023-04-27T06:03:21;15.98;;;10.30;;
52266;SDS011;38223;50.940;4.034;2023-04-27T06:06:01;14.43;;;9.73;;
52266;SDS011;38223;50.940;4.034;2023-04-27T06:08:35;14.18;;;10.08;;
52266;SDS011;38223;50.940;4.034;2023-04-27T06:11:06;18.45;;;10.03;;
52266;SDS011;38223;50.940;4.034;2023-04-27T06:13:42;14.18;;;10.32;;
52266;SDS011;38223;50.940;4.034;2023-04-27T06:16:12;17.62;;;10.80;;
52266;SDS011;38223;50.940;4.034;2023-04-27T06:18:46;14.95;;;11.63;;
52266;SDS011;38223;50.940;4.034;2023-04-27T06:21:22;15.23;;;10.70;;
52266;SDS011;38223;50.940;4.034;2023-04-27T06:23:56;15.90;;;10.58;;
52266;SDS011;38223;50.940;4.034;2023-04-27T06:26:30;12.73;;;10.40;;
52266;SDS011;38223;50.940;4.034;2023-04-27T06:29:04;11.33;;;10.25;;
52266;SDS011;38223;50.940;4.034;2023-04-27T06:31:37;21.00;;;11.90;;
52266;SDS011;38223;50.940;4.034;2023-04-27T06:34:15;12.65;;;10.98;;
52266;SDS011;38223;50.940;4.034;2023-04-27T06:36:52;14.90;;;10.85;;
52266;SDS011;38223;50.940;4.034;2023-04-27T06:39:28;18.17;;;11.03;;
52266;SDS011;38223;50.940;4.034;2023-04-27T06:42:01;12.15;;;10.70;;
52266;SDS011;38223;50.940;4.034;2023-04-27T06:44:46;17.90;;;10.85;;
52266;SDS011;38223;50.940;4.034;2023-04-27T06:47:20;14.28;;;9.88;;
52266;SDS011;38223;50.940;4.034;2023-04-27T06:49:53;17.17;;;10.28;;
52266;SDS011;38223;50.940;4.034;2023-04-27T06:52:21;11.35;;;8.30;;
52266;SDS011;38223;50.940;4.034;2023-04-27T06:54:49;15.25;;;11.40;;
52266;SDS011;38223;50.940;4.034;2023-04-27T06:57:21;15.20;;;10.63;;
52266;SDS011;38223;50.940;4.034;2023-04-27T06:59:55;11.63;;;8.95;;
52266;SDS011;38223;50.940;4.034;2023-04-27T07:02:22;19.90;;;11.63;;
52266;SDS011;38223;50.940;4.034;2023-04-27T07:04:50;18.30;;;11.73;;
52266;SDS011;38223;50.940;4.034;2023-04-27T07:07:22;11.53;;;9.50;;
52266;SDS011;38223;50.940;4.034;2023-04-27T07:09:57;12.23;;;11.03;;
52266;SDS011;38223;50.940;4.034;2023-04-27T07:12:29;14.40;;;11.83;;
52266;SDS011;38223;50.940;4.034;2023-04-27T07:14:58;15.07;;;12.00;;
52266;SDS011;38223;50.940;4.034;2023-04-27T07:19:58;13.88;;;10.53;;
52266;SDS011;38223;50.940;4.034;2023-04-27T07:22:31;17.17;;;12.65;;
52266;SDS011;38223;50.940;4.034;2023-04-27T07:25:05;12.58;;;11.00;;
52266;SDS011;38223;50.940;4.034;2023-04-27T07:27:34;19.32;;;12.03;;
52266;SDS011;38223;50.940;4.034;2023-04-27T07:30:05;16.65;;;10.88;;
52266;SDS011;38223;50.940;4.034;2023-04-27T07:32:41;20.52;;;11.83;;
52266;SDS011;38223;50.940;4.034;2023-04-27T07:35:14;20.35;;;13.45;;
52266;SDS011;38223;50.940;4.034;2023-04-27T07:37:46;20.82;;;13.48;;
52266;SDS011;38223;50.940;4.034;2023-04-27T07:40:21;19.20;;;13.10;;
52266;SDS011;38223;50.940;4.034;2023-04-27T07:42:55;18.07;;;13.40;;
52266;SDS011;38223;50.940;4.034;2023-04-27T07:45:28;21.82;;;13.80;;
52266;SDS011;38223;50.940;4.034;2023-04-27T07:48:02;20.15;;;13.38;;
52266;SDS011;38223;50.940;4.034;2023-04-27T07:50:35;23.42;;;15.20;;
52266;SDS011;38223;50.940;4.034;2023-04-27T07:53:05;18.57;;;14.78;;
52266;SDS011;38223;50.940;4.034;2023-04-27T07:55:39;20.10;;;15.43;;
52266;SDS011;38223;50.940;4.034;2023-04-27T07:58:14;20.45;;;15.25;;
52266;SDS011;38223;50.940;4.034;2023-04-27T08:00:48;21.00;;;15.38;;
52266;SDS011;38223;50.940;4.034;2023-04-27T08:03:16;25.70;;;14.70;;
52266;SDS011;38223;50.940;4.034;2023-04-27T08:05:49;18.62;;;14.50;;
52266;SDS011;38223;50.940;4.034;2023-04-27T08:08:20;21.35;;;15.38;;
52266;SDS011;38223;50.940;4.034;2023-04-27T08:13:19;33.65;;;15.43;;
52266;SDS011;38223;50.940;4.034;2023-04-27T08:15:48;20.25;;;14.18;;
52266;SDS011;38223;50.940;4.034;2023-04-27T08:18:17;19.90;;;15.00;;
52266;SDS011;38223;50.940;4.034;2023-04-27T08:20:55;21.23;;;14.47;;
52266;SDS011;38223;50.940;4.034;2023-04-27T08:23:28;60.50;;;28.35;;
52266;SDS011;38223;50.940;4.034;2023-04-27T08:26:02;29.18;;;15.53;;
52266;SDS011;38223;50.940;4.034;2023-04-27T08:28:31;23.07;;;15.35;;
52266;SDS011;38223;50.940;4.034;2023-04-27T08:31:01;14.30;;;11.75;;
52266;SDS011;38223;50.940;4.034;2023-04-27T08:33:32;19.67;;;14.25;;
52266;SDS011;38223;50.940;4.034;2023-04-27T08:36:06;17.35;;;13.65;;
52266;SDS011;38223;50.940;4.034;2023-04-27T08:38:36;22.60;;;13.88;;
52266;SDS011;38223;50.940;4.034;2023-04-27T08:41:09;21.35;;;12.43;;
52266;SDS011;38223;50.940;4.034;2023-04-27T08:43:39;18.48;;;11.43;;
52266;SDS011;38223;50.940;4.034;2023-04-27T08:46:10;18.40;;;13.32;;
52266;SDS011;38223;50.940;4.034;2023-04-27T08:48:37;19.73;;;12.90;;
52266;SDS011;38223;50.940;4.034;2023-04-27T08:51:07;16.50;;;11.28;;
52266;SDS011;38223;50.940;4.034;2023-04-27T08:53:52;15.78;;;12.43;;
52266;SDS011;38223;50.940;4.034;2023-04-27T08:58:51;12.50;;;9.43;;
52266;SDS011;38223;50.940;4.034;2023-04-27T09:03:58;14.53;;;9.90;;
52266;SDS011;38223;50.940;4.034;2023-04-27T09:06:34;16.65;;;11.22;;
52266;SDS011;38223;50.940;4.034;2023-04-27T09:09:03;15.40;;;9.78;;
52266;SDS011;38223;50.940;4.034;2023-04-27T09:11:33;12.25;;;9.65;;
52266;SDS011;38223;50.940;4.034;2023-04-27T09:14:18;14.93;;;11.68;;
52266;SDS011;38223;50.940;4.034;2023-04-27T09:16:53;15.95;;;11.08;;
52266;SDS011;38223;50.940;4.034;2023-04-27T09:19:29;15.28;;;10.20;;
52266;SDS011;38223;50.940;4.034;2023-04-27T09:24:48;17.02;;;11.15;;
52266;SDS011;38223;50.940;4.034;2023-04-27T09:27:21;15.85;;;11.22;;
52266;SDS011;38223;50.940;4.034;2023-04-27T09:29:54;14.50;;;10.10;;
52266;SDS011;38223;50.940;4.034;2023-04-27T09:32:25;16.17;;;11.63;;
52266;SDS011;38223;50.940;4.034;2023-04-27T09:34:52;12.15;;;9.80;;
52266;SDS011;38223;50.940;4.034;2023-04-27T09:37:20;11.22;;;10.10;;
52266;SDS011;38223;50.940;4.034;2023-04-27T09:39:48;13.38;;;10.03;;
52266;SDS011;38223;50.940;4.034;2023-04-27T09:42:17;10.30;;;9.23;;
52266;SDS011;38223;50.940;4.034;2023-04-27T09:44:45;12.35;;;9.68;;
52266;SDS011;38223;50.940;4.034;2023-04-27T09:47:18;11.38;;;9.38;;
52266;SDS011;38223;50.940;4.034;2023-04-27T09:49:46;12.58;;;9.23;;
52266;SDS011;38223;50.940;4.034;2023-04-27T09:52:15;16.02;;;9.63;;
52266;SDS011;38223;50.940;4.034;2023-04-27T09:54:45;15.40;;;9.00;;
52266;SDS011;38223;50.940;4.034;2023-04-27T09:57:17;10.63;;;9.38;;
52266;SDS011;38223;50.940;4.034;2023-04-27T10:08:34;17.92;;;10.38;;
52266;SDS011;38223;50.940;4.034;2023-04-27T10:11:16;11.75;;;9.53;;
52266;SDS011;38223;50.940;4.034;2023-04-27T10:13:53;17.92;;;10.25;;
52266;SDS011;38223;50.940;4.034;2023-04-27T10:16:22;13.30;;;9.68;;
52266;SDS011;38223;50.940;4.034;2023-04-27T10:18:51;10.40;;;8.15;;
52266;SDS011;38223;50.940;4.034;2023-04-27T10:21:21;12.50;;;9.75;;
52266;SDS011;38223;50.940;4.034;2023-04-27T10:23:50;14.93;;;9.33;;
52266;SDS011;38223;50.940;4.034;2023-04-27T10:26:26;15.30;;;11.38;;
52266;SDS011;38223;50.940;4.034;2023-04-27T10:31:42;12.70;;;10.13;;
52266;SDS011;38223;50.940;4.034;2023-04-27T10:34:14;11.90;;;10.40;;
52266;SDS011;38223;50.940;4.034;2023-04-27T10:36:45;11.38;;;9.33;;
52266;SDS011;38223;50.940;4.034;2023-04-27T10:39:16;16.20;;;8.95;;
52266;SDS011;38223;50.940;4.034;2023-04-27T10:41:55;12.68;;;9.95;;
52266;SDS011;38223;50.940;4.034;2023-04-27T10:44:24;14.65;;;9.58;;
52266;SDS011;38223;50.940;4.034;2023-04-27T10:46:56;12.33;;;9.93;;
52266;SDS011;38223;50.940;4.034;2023-04-27T10:49:27;13.22;;;8.20;;
52266;SDS011;38223;50.940;4.034;2023-04-27T10:52:04;12.13;;;9.93;;
52266;SDS011;38223;50.940;4.034;2023-04-27T10:54:31;9.60;;;8.70;;
52266;SDS011;38223;50.940;4.034;2023-04-27T10:59:49;12.63;;;8.98;;
52266;SDS011;38223;50.940;4.034;2023-04-27T11:02:24;17.12;;;9.25;;
52266;SDS011;38223;50.940;4.034;2023-04-27T11:04:57;11.93;;;8.48;;
52266;SDS011;38223;50.940;4.034;2023-04-27T11:07:25;11.12;;;8.00;;
52266;SDS011;38223;50.940;4.034;2023-04-27T11:09:54;9.10;;;7.72;;
52266;SDS011;38223;50.940;4.034;2023-04-27T11:12:21;12.53;;;9.75;;
52266;SDS011;38223;50.940;4.034;2023-04-27T11:15:07;14.73;;;11.40;;
52266;SDS011;38223;50.940;4.034;2023-04-27T11:17:29;13.32;;;9.30;;
52266;SDS011;38223;50.940;4.034;2023-04-27T11:19:58;12.33;;;9.88;;
52266;SDS011;38223;50.940;4.034;2023-04-27T11:22:27;10.43;;;8.63;;
52266;SDS011;38223;50.940;4.034;2023-04-27T11:24:57;26.80;;;9.20;;
52266;SDS011;38223;50.940;4.034;2023-04-27T11:27:36;10.88;;;9.80;;
52266;SDS011;38223;50.940;4.034;2023-04-27T11:30:17;10.98;;;8.88;;
52266;SDS011;38223;50.940;4.034;2023-04-27T11:32:48;20.32;;;9.20;;
52266;SDS011;38223;50.940;4.034;2023-04-27T11:35:33;10.28;;;7.67;;
52266;SDS011;38223;50.940;4.034;2023-04-27T11:38:01;9.45;;;8.55;;
52266;SDS011;38223;50.940;4.034;2023-04-27T11:40:29;9.20;;;8.30;;
52266;SDS011;38223;50.940;4.034;2023-04-27T11:42:59;9.55;;;8.65;;
52266;SDS011;38223;50.940;4.034;2023-04-27T11:45:28;15.83;;;8.98;;
52266;SDS011;38223;50.940;4.034;2023-04-27T11:48:01;22.32;;;7.83;;
52266;SDS011;38223;50.940;4.034;2023-04-27T11:50:33;11.57;;;8.13;;
52266;SDS011;38223;50.940;4.034;2023-04-27T11:53:04;14.30;;;8.33;;
52266;SDS011;38223;50.940;4.034;2023-04-27T11:55:35;11.00;;;8.28;;
52266;SDS011;38223;50.940;4.034;2023-04-27T11:58:04;9.60;;;8.60;;
52266;SDS011;38223;50.940;4.034;2023-04-27T12:00:32;10.82;;;8.43;;
52266;SDS011;38223;50.940;4.034;2023-04-27T12:03:01;9.50;;;8.33;;
52266;SDS011;38223;50.940;4.034;2023-04-27T12:05:29;9.28;;;8.40;;
52266;SDS011;38223;50.940;4.034;2023-04-27T12:07:57;11.45;;;8.20;;
52266;SDS011;38223;50.940;4.034;2023-04-27T12:10:24;11.95;;;8.38;;
52266;SDS011;38223;50.940;4.034;2023-04-27T12:12:55;12.47;;;8.10;;
52266;SDS011;38223;50.940;4.034;2023-04-27T12:15:23;9.75;;;7.90;;
52266;SDS011;38223;50.940;4.034;2023-04-27T12:17:50;9.05;;;7.97;;
52266;SDS011;38223;50.940;4.034;2023-04-27T12:20:18;16.62;;;8.43;;
52266;SDS011;38223;50.940;4.034;2023-04-27T12:22:46;9.73;;;7.70;;
52266;SDS011;38223;50.940;4.034;2023-04-27T12:25:16;10.25;;;8.90;;
52266;SDS011;38223;50.940;4.034;2023-04-27T12:27:44;11.88;;;8.63;;
52266;SDS011;38223;50.940;4.034;2023-04-27T12:30:13;14.07;;;8.23;;
52266;SDS011;38223;50.940;4.034;2023-04-27T12:32:41;15.48;;;9.50;;
52266;SDS011;38223;50.940;4.034;2023-04-27T12:35:09;11.00;;;8.65;;
52266;SDS011;38223;50.940;4.034;2023-04-27T12:37:36;10.82;;;9.50;;
52266;SDS011;38223;50.940;4.034;2023-04-27T12:40:07;10.78;;;8.03;;
52266;SDS011;38223;50.940;4.034;2023-04-27T12:42:35;9.75;;;8.75;;
52266;SDS011;38223;50.940;4.034;2023-04-27T12:45:06;9.40;;;8.20;;
52266;SDS011;38223;50.940;4.034;2023-04-27T12:50:00;10.53;;;8.08;;
52266;SDS011;38223;50.940;4.034;2023-04-27T12:52:32;8.85;;;8.00;;
52266;SDS011;38223;50.940;4.034;2023-04-27T12:55:03;12.75;;;7.53;;
52266;SDS011;38223;50.940;4.034;2023-04-27T12:57:33;9.20;;;7.47;;
52266;SDS011;38223;50.940;4.034;2023-04-27T13:00:03;14.53;;;8.43;;
52266;SDS011;38223;50.940;4.034;2023-04-27T13:02:35;10.53;;;9.00;;
52266;SDS011;38223;50.940;4.034;2023-04-27T13:05:03;10.88;;;7.70;;
52266;SDS011;38223;50.940;4.034;2023-04-27T13:07:32;13.88;;;8.38;;
52266;SDS011;38223;50.940;4.034;2023-04-27T13:10:03;11.73;;;8.43;;
52266;SDS011;38223;50.940;4.034;2023-04-27T13:12:35;10.82;;;8.78;;
52266;SDS011;38223;50.940;4.034;2023-04-27T13:15:09;9.63;;;8.73;;
52266;SDS011;38223;50.940;4.034;2023-04-27T13:17:37;10.88;;;8.38;;
52266;SDS011;38223;50.940;4.034;2023-04-27T13:20:11;9.45;;;7.65;;
52266;SDS011;38223;50.940;4.034;2023-04-27T13:22:40;8.88;;;7.85;;
52266;SDS011;38223;50.940;4.034;2023-04-27T13:25:11;9.03;;;7.75;;
52266;SDS011;38223;50.940;4.034;2023-04-27T13:27:47;8.33;;;7.45;;
52266;SDS011;38223;50.940;4.034;2023-04-27T13:30:19;10.53;;;8.83;;
52266;SDS011;38223;50.940;4.034;2023-04-27T13:32:46;13.15;;;9.68;;
52266;SDS011;38223;50.940;4.034;2023-04-27T13:35:17;12.40;;;9.25;;
52266;SDS011;38223;50.940;4.034;2023-04-27T13:37:49;19.80;;;9.08;;
52266;SDS011;38223;50.940;4.034;2023-04-27T13:40:20;9.27;;;8.43;;
52266;SDS011;38223;50.940;4.034;2023-04-27T13:42:49;20.60;;;9.85;;
52266;SDS011;38223;50.940;4.034;2023-04-27T13:45:18;11.75;;;9.28;;
52266;SDS011;38223;50.940;4.034;2023-04-27T13:47:46;11.18;;;8.80;;
52266;SDS011;38223;50.940;4.034;2023-04-27T13:50:15;20.27;;;8.05;;
52266;SDS011;38223;50.940;4.034;2023-04-27T13:52:44;10.30;;;7.20;;
52266;SDS011;38223;50.940;4.034;2023-04-27T13:55:11;12.60;;;8.45;;
52266;SDS011;38223;50.940;4.034;2023-04-27T13:57:39;13.03;;;9.68;;
52266;SDS011;38223;50.940;4.034;2023-04-27T14:00:09;11.97;;;8.30;;
52266;SDS011;38223;50.940;4.034;2023-04-27T14:02:45;14.95;;;8.58;;
52266;SDS011;38223;50.940;4.034;2023-04-27T14:05:20;17.35;;;8.60;;
52266;SDS011;38223;50.940;4.034;2023-04-27T14:07:53;17.62;;;9.50;;
52266;SDS011;38223;50.940;4.034;2023-04-27T14:10:25;15.05;;;9.85;;
52266;SDS011;38223;50.940;4.034;2023-04-27T14:12:57;15.53;;;9.70;;
52266;SDS011;38223;50.940;4.034;2023-04-27T14:15:32;12.40;;;9.75;;
52266;SDS011;38223;50.940;4.034;2023-04-27T14:18:08;15.80;;;9.65;;
52266;SDS011;38223;50.940;4.034;2023-04-27T14:20:42;15.03;;;9.33;;
52266;SDS011;38223;50.940;4.034;2023-04-27T14:23:15;12.05;;;10.15;;
52266;SDS011;38223;50.940;4.034;2023-04-27T14:25:46;9.75;;;8.80;;
52266;SDS011;38223;50.940;4.034;2023-04-27T14:28:23;17.48;;;9.48;;
52266;SDS011;38223;50.940;4.034;2023-04-27T14:31:09;17.10;;;8.25;;
52266;SDS011;38223;50.940;4.034;2023-04-27T14:33:43;14.85;;;9.25;;
52266;SDS011;38223;50.940;4.034;2023-04-27T14:36:27;13.78;;;9.30;;
52266;SDS011;38223;50.940;4.034;2023-04-27T14:39:02;13.68;;;9.03;;
52266;SDS011;38223;50.940;4.034;2023-04-27T14:41:37;18.77;;;10.25;;
52266;SDS011;38223;50.940;4.034;2023-04-27T14:44:16;11.75;;;9.75;;
52266;SDS011;38223;50.940;4.034;2023-04-27T14:46:49;17.95;;;10.00;;
52266;SDS011;38223;50.940;4.034;2023-04-27T14:49:19;13.43;;;10.13;;
52266;SDS011;38223;50.940;4.034;2023-04-27T14:51:55;15.28;;;10.15;;
52266;SDS011;38223;50.940;4.034;2023-04-27T14:54:25;18.05;;;9.80;;
52266;SDS011;38223;50.940;4.034;2023-04-27T14:57:03;15.50;;;11.03;;
52266;SDS011;38223;50.940;4.034;2023-04-27T14:59:40;17.23;;;11.25;;
52266;SDS011;38223;50.940;4.034;2023-04-27T15:02:14;17.48;;;11.85;;
52266;SDS011;38223;50.940;4.034;2023-04-27T15:07:42;17.32;;;11.10;;
52266;SDS011;38223;50.940;4.034;2023-04-27T15:10:14;11.73;;;10.50;;
52266;SDS011;38223;50.940;4.034;2023-04-27T15:12:54;16.52;;;10.80;;
52266;SDS011;38223;50.940;4.034;2023-04-27T15:15:39;13.35;;;10.68;;
52266;SDS011;38223;50.940;4.034;2023-04-27T15:18:13;15.93;;;11.33;;
52266;SDS011;38223;50.940;4.034;2023-04-27T15:20:43;13.53;;;9.90;;
52266;SDS011;38223;50.940;4.034;2023-04-27T15:23:21;13.03;;;9.45;;
52266;SDS011;38223;50.940;4.034;2023-04-27T15:25:58;13.68;;;10.58;;
52266;SDS011;38223;50.940;4.034;2023-04-27T15:28:28;14.63;;;11.30;;
52266;SDS011;38223;50.940;4.034;2023-04-27T15:30:58;14.03;;;9.93;;
52266;SDS011;38223;50.940;4.034;2023-04-27T15:33:33;12.75;;;10.10;;
52266;SDS011;38223;50.940;4.034;2023-04-27T15:36:05;14.58;;;10.18;;
52266;SDS011;38223;50.940;4.034;2023-04-27T15:38:36;11.15;;;7.83;;
52266;SDS011;38223;50.940;4.034;2023-04-27T15:41:06;12.15;;;10.75;;